createdAt,value
2023-04-01T00:01:40.481Z,100.00
2023-04-01T00:04:09.138Z,100.00
2023-04-01T00:06:37.729Z,100.00
2023-04-01T00:09:06.299Z,100.00
2023-04-01T00:11:35.180Z,100.00
2023-04-01T00:14:03.739Z,100.00
2023-04-01T00:16:32.485Z,100.00
2023-04-01T00:19:01.915Z,100.00
2023-04-01T00:21:30.488Z,100.00
2023-04-01T00:23:58.932Z,100.00
2023-04-01T00:26:27.966Z,100.00
2023-04-01T00:28:56.557Z,100.00
2023-04-01T00:31:25.173Z,100.00
2023-04-01T00:33:54.435Z,100.00
2023-04-01T00:36:24.363Z,100.00
2023-04-01T00:38:52.994Z,100.00
2023-04-01T00:41:23.050Z,100.00
2023-04-01T00:43:54.301Z,100.00
2023-04-01T00:46:22.615Z,100.00
2023-04-01T00:48:57.522Z,100.00
2023-04-01T00:51:31.905Z,100.00
2023-04-01T00:54:04.997Z,100.00
2023-04-01T00:56:49.709Z,100.00
2023-04-01T00:59:26.371Z,100.00
2023-04-01T01:01:54.826Z,100.00
2023-04-01T01:04:33.435Z,100.00
2023-04-01T01:07:29.805Z,100.00
2023-04-01T01:10:15.392Z,100.00
2023-04-01T01:13:17.575Z,100.00
2023-04-01T01:16:00.408Z,100.00
2023-04-01T01:19:17.468Z,100.00
2023-04-01T01:22:36.431Z,100.00
2023-04-01T01:25:21.574Z,100.00
2023-04-01T01:28:37.714Z,100.00
2023-04-01T01:34:17.778Z,100.00
2023-04-01T01:36:48.364Z,100.00
2023-04-01T01:39:17.048Z,100.00
2023-04-01T01:41:48.014Z,100.00
2023-04-01T01:44:18.612Z,100.00
2023-04-01T01:46:48.279Z,100.00
2023-04-01T01:49:18.711Z,100.00
2023-04-01T01:51:46.864Z,100.00
2023-04-01T01:54:24.273Z,100.00
2023-04-01T01:57:11.502Z,100.00
2023-04-01T01:59:42.589Z,100.00
2023-04-01T02:02:15.434Z,100.00
2023-04-01T02:04:46.744Z,100.00
2023-04-01T02:07:33.136Z,100.00
2023-04-01T02:10:02.224Z,100.00
2023-04-01T02:12:32.508Z,100.00
2023-04-01T02:15:15.414Z,100.00
2023-04-01T02:17:48.197Z,100.00
2023-04-01T02:20:25.573Z,100.00
2023-04-01T02:22:57.036Z,100.00
2023-04-01T02:25:32.982Z,100.00
2023-04-01T02:28:02.340Z,100.00
2023-04-01T02:30:34.242Z,100.00
2023-04-01T02:33:02.905Z,100.00
2023-04-01T02:35:36.032Z,100.00
2023-04-01T02:38:04.658Z,100.00
2023-04-01T02:40:49.554Z,100.00
2023-04-01T02:43:21.963Z,100.00
2023-04-01T02:45:50.639Z,100.00
2023-04-01T02:48:18.855Z,100.00
2023-04-01T02:50:47.142Z,100.00
2023-04-01T02:53:15.631Z,100.00
2023-04-01T02:55:44.094Z,100.00
2023-04-01T02:58:12.618Z,100.00
2023-04-01T03:00:42.123Z,100.00
2023-04-01T03:03:14.639Z,100.00
2023-04-01T03:05:43.350Z,100.00
2023-04-01T03:08:12.868Z,100.00
2023-04-01T03:10:41.006Z,100.00
2023-04-01T03:13:09.263Z,100.00
2023-04-01T03:15:37.381Z,100.00
2023-04-01T03:18:06.142Z,100.00
2023-04-01T03:20:34.277Z,100.00
2023-04-01T03:23:02.410Z,100.00
2023-04-01T03:25:31.968Z,100.00
2023-04-01T03:28:00.811Z,100.00
2023-04-01T03:30:31.085Z,100.00
2023-04-01T03:33:00.770Z,100.00
2023-04-01T03:35:29.617Z,100.00
2023-04-01T03:37:58.494Z,100.00
2023-04-01T03:40:27.342Z,100.00
2023-04-01T03:42:57.127Z,100.00
2023-04-01T03:45:25.729Z,100.00
2023-04-01T03:47:54.287Z,100.00
2023-04-01T03:50:22.447Z,100.00
2023-04-01T03:52:52.235Z,100.00
2023-04-01T03:55:21.392Z,100.00
2023-04-01T03:57:49.906Z,100.00
2023-04-01T04:00:18.785Z,100.00
2023-04-01T04:02:47.277Z,100.00
2023-04-01T04:05:16.272Z,100.00
2023-04-01T04:07:44.367Z,100.00
2023-04-01T04:10:12.979Z,100.00
2023-04-01T04:12:41.494Z,100.00
2023-04-01T04:15:11.499Z,100.00
2023-04-01T04:17:39.740Z,100.00
2023-04-01T04:20:09.044Z,100.00
2023-04-01T04:22:40.316Z,100.00
2023-04-01T04:25:09.354Z,100.00
2023-04-01T04:27:37.917Z,100.00
2023-04-01T04:30:08.777Z,100.00
2023-04-01T04:32:37.172Z,100.00
2023-04-01T04:35:07.434Z,100.00
2023-04-01T04:37:35.673Z,100.00
2023-04-01T04:40:04.286Z,100.00
2023-04-01T04:42:32.815Z,100.00
2023-04-01T04:45:03.528Z,100.00
2023-04-01T04:47:31.696Z,100.00
2023-04-01T04:49:59.828Z,100.00
2023-04-01T04:52:28.289Z,100.00
2023-04-01T04:54:56.765Z,100.00
2023-04-01T04:57:24.963Z,100.00
2023-04-01T04:59:53.061Z,100.00
2023-04-01T05:02:21.350Z,100.00
2023-04-01T05:04:52.736Z,100.00
2023-04-01T05:07:21.516Z,100.00
2023-04-01T05:09:50.050Z,100.00
2023-04-01T05:12:18.235Z,100.00
2023-04-01T05:14:49.505Z,100.00
2023-04-01T05:17:17.979Z,100.00
2023-04-01T05:19:46.126Z,100.00
2023-04-01T05:22:14.296Z,100.00
2023-04-01T05:24:42.759Z,100.00
2023-04-01T05:27:19.579Z,100.00
2023-04-01T05:29:48.063Z,100.00
2023-04-01T05:32:17.040Z,100.00
2023-04-01T05:34:45.447Z,100.00
2023-04-01T05:37:13.929Z,100.00
2023-04-01T05:39:45.217Z,100.00
2023-04-01T05:42:16.801Z,100.00
2023-04-01T05:44:48.286Z,100.00
2023-04-01T05:47:19.190Z,100.00
2023-04-01T05:49:47.273Z,100.00
2023-04-01T05:52:17.700Z,100.00
2023-04-01T05:54:45.876Z,100.00
2023-04-01T05:57:16.962Z,100.00
2023-04-01T05:59:45.643Z,100.00
2023-04-01T06:02:16.395Z,100.00
2023-04-01T06:04:44.668Z,100.00
2023-04-01T06:07:21.010Z,100.00
2023-04-01T06:09:49.536Z,100.00
2023-04-01T06:12:45.350Z,100.00
2023-04-01T06:15:39.582Z,100.00
2023-04-01T06:18:32.467Z,100.00
2023-04-01T06:21:10.753Z,100.00
2023-04-01T06:24:21.124Z,100.00
2023-04-01T06:27:19.958Z,100.00
2023-04-01T06:30:45.804Z,100.00
2023-04-01T06:34:00.127Z,100.00
2023-04-01T06:36:58.955Z,100.00
2023-04-01T06:39:38.417Z,100.00
2023-04-01T06:42:12.770Z,100.00
2023-04-01T06:45:18.498Z,100.00
2023-04-01T06:48:01.892Z,100.00
2023-04-01T06:50:44.862Z,100.00
2023-04-01T06:53:32.104Z,100.00
2023-04-01T06:56:08.602Z,100.00
2023-04-01T06:58:52.281Z,100.00
2023-04-01T07:01:28.609Z,100.00
2023-04-01T07:04:04.255Z,100.00
2023-04-01T07:06:48.537Z,100.00
2023-04-01T07:09:44.190Z,100.00
2023-04-01T07:12:57.228Z,100.00
2023-04-01T07:15:35.153Z,100.00
2023-04-01T07:18:23.757Z,100.00
2023-04-01T07:20:54.174Z,100.00
2023-04-01T07:23:30.999Z,100.00
2023-04-01T07:26:09.186Z,100.00
2023-04-01T07:28:37.295Z,100.00
2023-04-01T07:31:31.541Z,100.00
2023-04-01T07:34:15.375Z,100.00
2023-04-01T07:36:58.380Z,98.81
2023-04-01T07:39:30.060Z,98.24
2023-04-01T07:42:19.270Z,97.92
2023-04-01T07:45:26.695Z,97.08
2023-04-01T07:48:06.942Z,95.73
2023-04-01T07:51:19.966Z,96.12
2023-04-01T07:54:51.160Z,95.58
2023-04-01T07:57:36.742Z,95.33
2023-04-01T08:00:49.368Z,94.83
2023-04-01T08:03:58.889Z,91.46
2023-04-01T08:06:47.736Z,91.85
2023-04-01T08:09:42.310Z,91.68
2023-04-01T08:12:14.922Z,91.26
2023-04-01T08:15:11.219Z,90.37
2023-04-01T08:18:10.562Z,89.45
2023-04-01T08:21:16.782Z,89.18
2023-04-01T08:23:50.252Z,89.09
2023-04-01T08:26:42.267Z,88.86
2023-04-01T08:29:19.096Z,88.74
2023-04-01T08:32:04.325Z,86.57
2023-04-01T08:34:44.981Z,86.37
2023-04-01T08:37:26.752Z,86.77
2023-04-01T08:40:53.230Z,86.61
2023-04-01T08:44:04.399Z,86.53
2023-04-01T08:47:07.841Z,86.17
2023-04-01T08:50:09.211Z,86.75
2023-04-01T08:52:55.006Z,86.68
2023-04-01T08:56:09.326Z,84.82
2023-04-01T08:59:11.343Z,85.42
2023-04-01T09:02:05.763Z,85.41
2023-04-01T09:05:01.525Z,85.36
2023-04-01T09:07:53.349Z,85.57
2023-04-01T09:10:42.432Z,85.78
2023-04-01T09:13:13.297Z,85.94
2023-04-01T09:16:12.576Z,85.36
2023-04-01T09:19:27.216Z,83.70
2023-04-01T09:22:22.487Z,83.01
2023-04-01T09:25:25.667Z,83.71
2023-04-01T09:28:14.002Z,83.23
2023-04-01T09:31:25.904Z,82.76
2023-04-01T09:34:41.563Z,81.46
2023-04-01T09:37:37.084Z,80.62
2023-04-01T09:40:47.346Z,79.16
2023-04-01T09:43:47.584Z,80.34
2023-04-01T09:46:30.310Z,80.70
2023-04-01T09:49:35.128Z,80.56
2023-04-01T09:52:17.955Z,80.39
2023-04-01T09:55:06.752Z,80.31
2023-04-01T09:58:05.750Z,80.92
2023-04-01T10:00:56.934Z,80.41
2023-04-01T10:04:04.249Z,80.63
2023-04-01T10:06:53.870Z,80.80
2023-04-01T10:09:52.338Z,80.50
2023-04-01T10:12:20.983Z,81.12
2023-04-01T10:15:19.248Z,81.87
2023-04-01T10:18:06.200Z,82.63
2023-04-01T10:20:46.367Z,83.34
2023-04-01T10:23:25.120Z,83.35
2023-04-01T10:26:50.260Z,83.16
2023-04-01T10:29:58.764Z,84.32
2023-04-01T10:32:48.428Z,83.93
2023-04-01T10:36:15.724Z,84.28
2023-04-01T10:39:05.538Z,85.30
2023-04-01T10:42:07.385Z,85.73
2023-04-01T10:44:59.900Z,87.19
2023-04-01T10:48:07.764Z,87.49
2023-04-01T10:51:18.854Z,87.79
2023-04-01T10:54:17.897Z,87.04
2023-04-01T10:57:30.764Z,88.65
2023-04-01T11:00:23.642Z,90.42
2023-04-01T11:03:29.112Z,92.23
2023-04-01T11:07:04.805Z,93.48
2023-04-01T11:10:06.657Z,94.54
2023-04-01T11:12:52.456Z,94.64
2023-04-01T11:15:23.901Z,94.70
2023-04-01T11:18:22.908Z,92.80
2023-04-01T11:21:18.020Z,90.79
2023-04-01T11:24:06.104Z,88.07
2023-04-01T11:26:55.445Z,87.37
2023-04-01T11:29:59.763Z,86.22
2023-04-01T11:32:50.289Z,86.41
2023-04-01T11:35:46.483Z,86.63
2023-04-01T11:38:29.171Z,88.54
2023-04-01T11:41:29.991Z,90.54
2023-04-01T11:44:19.946Z,89.86
2023-04-01T11:47:16.787Z,89.63
2023-04-01T11:49:59.335Z,85.84
2023-04-01T11:52:54.876Z,84.38
2023-04-01T11:55:44.012Z,83.71
2023-04-01T11:58:59.278Z,84.01
2023-04-01T12:02:10.543Z,85.91
2023-04-01T12:05:15.082Z,87.33
2023-04-01T12:07:57.298Z,90.21
2023-04-01T12:10:53.158Z,91.82
2023-04-01T12:14:04.534Z,93.50
2023-04-01T12:16:51.517Z,94.79
2023-04-01T12:19:35.195Z,95.37
2023-04-01T12:22:09.606Z,95.35
2023-04-01T12:25:28.111Z,95.50
2023-04-01T12:28:17.331Z,95.41
2023-04-01T12:30:50.983Z,95.97
2023-04-01T12:34:09.604Z,96.18
2023-04-01T12:36:54.320Z,95.93
2023-04-01T12:39:22.780Z,96.02
2023-04-01T12:42:01.921Z,96.32
2023-04-01T12:45:07.545Z,96.36
2023-04-01T12:47:42.061Z,96.61
2023-04-01T12:50:54.404Z,95.96
2023-04-01T12:53:48.721Z,94.66
2023-04-01T12:56:44.300Z,93.42
2023-04-01T12:59:45.820Z,92.24
2023-04-01T13:02:53.368Z,91.49
2023-04-01T13:06:30.592Z,89.33
2023-04-01T13:09:18.178Z,87.29
2023-04-01T13:12:31.908Z,87.56
2023-04-01T13:15:23.519Z,87.08
2023-04-01T13:17:52.074Z,86.28
2023-04-01T13:21:04.186Z,86.83
2023-04-01T13:24:09.056Z,87.39
2023-04-01T13:27:17.080Z,86.86
2023-04-01T13:30:03.098Z,86.87
2023-04-01T13:32:43.461Z,86.91
2023-04-01T13:35:19.432Z,87.25
2023-04-01T13:38:40.329Z,88.00
2023-04-01T13:41:50.896Z,88.17
2023-04-01T13:45:02.529Z,88.31
2023-04-01T13:47:55.689Z,89.00
2023-04-01T13:50:47.737Z,90.09
2023-04-01T13:53:53.758Z,91.28
2023-04-01T13:56:45.441Z,92.37
2023-04-01T13:59:22.881Z,93.46
2023-04-01T14:02:56.886Z,94.06
2023-04-01T14:05:41.873Z,94.14
2023-04-01T14:08:44.718Z,94.61
2023-04-01T14:11:21.057Z,95.02
2023-04-01T14:14:13.824Z,95.51
2023-04-01T14:17:00.053Z,95.50
2023-04-01T14:20:04.844Z,96.19
2023-04-01T14:22:52.112Z,96.29
2023-04-01T14:26:12.888Z,96.70
2023-04-01T14:29:14.535Z,96.65
2023-04-01T14:32:15.302Z,97.99
2023-04-01T14:35:14.693Z,97.85
2023-04-01T14:38:27.866Z,98.35
2023-04-01T14:41:21.614Z,99.21
2023-04-01T14:44:07.810Z,99.37
2023-04-01T14:46:41.460Z,100.00
2023-04-01T14:49:45.394Z,100.00
2023-04-01T14:52:29.417Z,100.00
2023-04-01T14:55:00.052Z,100.00
2023-04-01T14:57:30.989Z,100.00
2023-04-01T15:00:20.506Z,100.00
2023-04-01T15:03:30.121Z,100.00
2023-04-01T15:06:48.761Z,100.00
2023-04-01T15:09:53.931Z,100.00
2023-04-01T15:12:45.630Z,100.00
2023-04-01T15:15:39.231Z,100.00
2023-04-01T15:18:54.191Z,100.00
2023-04-01T15:21:48.063Z,100.00
2023-04-01T15:24:19.497Z,100.00
2023-04-01T15:27:16.832Z,100.00
2023-04-01T15:30:22.550Z,100.00
2023-04-01T15:33:16.703Z,100.00
2023-04-01T15:36:12.567Z,99.53
2023-04-01T15:38:55.249Z,99.17
2023-04-01T15:41:44.189Z,99.64
2023-04-01T15:45:04.055Z,100.00
2023-04-01T15:48:24.996Z,100.00
2023-04-01T15:51:05.864Z,100.00
2023-04-01T15:53:55.155Z,99.02
2023-04-01T15:57:02.493Z,96.91
2023-04-01T16:00:03.754Z,96.97
2023-04-01T16:02:48.469Z,98.28
2023-04-01T16:05:43.956Z,98.35
2023-04-01T16:08:25.004Z,98.56
2023-04-01T16:11:25.060Z,98.52
2023-04-01T16:13:56.601Z,98.41
2023-04-01T16:17:08.482Z,98.00
2023-04-01T16:19:52.383Z,97.71
2023-04-01T16:22:54.627Z,97.83
2023-04-01T16:25:43.454Z,96.63
2023-04-01T16:28:36.686Z,96.63
2023-04-01T16:31:07.806Z,95.51
2023-04-01T16:33:42.408Z,93.63
2023-04-01T16:36:31.192Z,94.26
2023-04-01T16:39:32.219Z,95.01
2023-04-01T16:42:47.020Z,96.23
2023-04-01T16:45:45.847Z,95.72
2023-04-01T16:48:28.057Z,96.42
2023-04-01T16:51:15.648Z,96.12
2023-04-01T16:54:23.396Z,96.93
2023-04-01T16:57:11.824Z,97.72
2023-04-01T17:00:21.773Z,98.56
2023-04-01T17:03:31.298Z,100.00
2023-04-01T17:06:30.771Z,100.00
2023-04-01T17:09:31.058Z,100.00
2023-04-01T17:12:38.599Z,100.00
2023-04-01T17:15:36.008Z,100.00
2023-04-01T17:18:13.371Z,100.00
2023-04-01T17:21:04.687Z,99.87
2023-04-01T17:23:50.829Z,100.00
2023-04-01T17:26:42.615Z,99.59
2023-04-01T17:29:33.649Z,99.38
2023-04-01T17:32:42.834Z,99.87
2023-04-01T17:35:37.223Z,100.00
2023-04-01T17:38:11.672Z,100.00
2023-04-01T17:41:14.530Z,100.00
2023-04-01T17:44:24.349Z,100.00
2023-04-01T17:47:44.411Z,100.00
2023-04-01T17:50:26.089Z,99.72
2023-04-01T17:53:19.890Z,99.47
2023-04-01T17:56:06.746Z,99.37
2023-04-01T17:58:47.490Z,99.50
2023-04-01T18:01:39.791Z,99.13
2023-04-01T18:04:55.267Z,99.83
2023-04-01T18:07:55.748Z,99.78
2023-04-01T18:10:51.418Z,99.78
2023-04-01T18:13:56.480Z,99.80
2023-04-01T18:16:46.588Z,100.00
2023-04-01T18:19:45.469Z,100.00
2023-04-01T18:22:45.656Z,100.00
2023-04-01T18:25:41.880Z,100.00
2023-04-01T18:28:38.843Z,100.00
2023-04-01T18:31:51.867Z,100.00
2023-04-01T18:35:03.001Z,100.00
2023-04-01T18:37:37.275Z,100.00
2023-04-01T18:40:45.244Z,100.00
2023-04-01T18:43:57.282Z,100.00
2023-04-01T18:46:43.509Z,100.00
2023-04-01T18:49:17.890Z,100.00
2023-04-01T18:52:29.862Z,100.00
2023-04-01T18:55:08.784Z,100.00
2023-04-01T18:57:50.531Z,100.00
2023-04-01T19:00:30.905Z,100.00
2023-04-01T19:03:18.632Z,100.00
2023-04-01T19:05:50.106Z,100.00
2023-04-01T19:08:31.351Z,100.00
2023-04-01T19:11:20.362Z,100.00
2023-04-01T19:14:06.228Z,100.00
2023-04-01T19:17:24.902Z,100.00
2023-04-01T19:20:35.505Z,100.00
2023-04-01T19:23:32.611Z,100.00
2023-04-01T19:26:30.342Z,100.00
2023-04-01T19:29:17.704Z,100.00
2023-04-01T19:32:06.951Z,100.00
2023-04-01T19:35:00.781Z,100.00
2023-04-01T19:37:56.898Z,100.00
2023-04-01T19:40:54.391Z,100.00
2023-04-01T19:44:07.556Z,100.00
2023-04-01T19:46:51.488Z,100.00
2023-04-01T19:49:50.094Z,100.00
2023-04-01T19:52:39.089Z,100.00
2023-04-01T19:55:32.231Z,100.00
2023-04-01T19:58:07.099Z,100.00
2023-04-01T20:00:55.890Z,100.00
2023-04-01T20:03:59.733Z,100.00
2023-04-01T20:07:05.006Z,100.00
2023-04-01T20:10:19.149Z,100.00
2023-04-01T20:13:14.230Z,100.00
2023-04-01T20:15:47.204Z,100.00
2023-04-01T20:18:35.238Z,100.00
2023-04-01T20:21:18.554Z,100.00
2023-04-01T20:24:19.685Z,100.00
2023-04-01T20:27:27.548Z,100.00
2023-04-01T20:29:59.055Z,100.00
2023-04-01T20:32:57.912Z,100.00
2023-04-01T20:35:32.797Z,100.00
2023-04-01T20:38:36.729Z,100.00
2023-04-01T20:41:27.756Z,100.00
2023-04-01T20:44:27.954Z,100.00
2023-04-01T20:47:08.067Z,100.00
2023-04-01T20:50:26.271Z,100.00
2023-04-01T20:52:58.654Z,100.00
2023-04-01T20:56:23.542Z,100.00
2023-04-01T20:59:24.785Z,100.00
2023-04-01T21:02:34.722Z,100.00
2023-04-01T21:05:48.004Z,100.00
2023-04-01T21:08:22.183Z,100.00
2023-04-01T21:11:02.245Z,100.00
2023-04-01T21:13:56.085Z,100.00
2023-04-01T21:16:51.521Z,100.00
2023-04-01T21:20:15.955Z,100.00
2023-04-01T21:23:02.298Z,100.00
2023-04-01T21:25:43.339Z,100.00
2023-04-01T21:28:31.727Z,100.00
2023-04-01T21:31:46.984Z,100.00
2023-04-01T21:34:37.065Z,100.00
2023-04-01T21:37:49.095Z,100.00
2023-04-01T21:40:55.084Z,100.00
2023-04-01T21:44:04.255Z,100.00
2023-04-01T21:47:05.514Z,100.00
2023-04-01T21:50:17.360Z,100.00
2023-04-01T21:52:48.866Z,100.00
2023-04-01T21:56:04.747Z,100.00
2023-04-01T21:59:26.985Z,100.00
2023-04-01T22:02:36.331Z,100.00
2023-04-01T22:05:22.108Z,100.00
2023-04-01T22:08:36.816Z,100.00
2023-04-01T22:11:22.806Z,100.00
2023-04-01T22:14:07.705Z,100.00
2023-04-01T22:17:04.254Z,100.00
2023-04-01T22:19:51.750Z,100.00
2023-04-01T22:22:37.019Z,100.00
2023-04-01T22:25:28.944Z,100.00
2023-04-01T22:28:01.747Z,100.00
2023-04-01T22:30:42.604Z,100.00
2023-04-01T22:33:14.997Z,100.00
2023-04-01T22:36:21.838Z,100.00
2023-04-01T22:39:09.156Z,100.00
2023-04-01T22:41:56.009Z,100.00
2023-04-01T22:44:37.463Z,100.00
2023-04-01T22:47:16.102Z,100.00
2023-04-01T22:49:51.011Z,100.00
2023-04-01T22:52:49.254Z,100.00
2023-04-01T22:55:28.506Z,100.00
2023-04-01T22:58:02.719Z,100.00
2023-04-01T23:01:00.829Z,100.00
2023-04-01T23:03:35.684Z,100.00
2023-04-01T23:06:07.092Z,100.00
2023-04-01T23:09:11.731Z,100.00
2023-04-01T23:11:57.403Z,100.00
2023-04-01T23:14:32.881Z,100.00
2023-04-01T23:17:19.956Z,100.00
2023-04-01T23:20:00.525Z,100.00
2023-04-01T23:22:40.451Z,100.00
2023-04-01T23:25:39.199Z,100.00
2023-04-01T23:28:16.868Z,100.00
2023-04-01T23:30:45.571Z,100.00
2023-04-01T23:33:22.167Z,100.00
2023-04-01T23:36:07.178Z,100.00
2023-04-01T23:38:44.295Z,100.00
2023-04-01T23:41:30.188Z,100.00
2023-04-01T23:44:05.312Z,100.00
2023-04-01T23:46:36.579Z,100.00
2023-04-01T23:49:06.251Z,100.00
2023-04-01T23:51:53.069Z,100.00
2023-04-01T23:54:44.195Z,100.00
2023-04-01T23:57:19.487Z,100.00
